createdAt,value
2023-04-03T08:44:36.296Z,46.19
2023-04-03T08:47:12.508Z,45.72
2023-04-03T08:49:52.396Z,43.74
2023-04-03T08:52:33.497Z,44.81
2023-04-03T08:55:04.726Z,43.26
2023-04-03T08:57:35.063Z,45.20
2023-04-03T09:00:11.329Z,43.83
2023-04-03T09:02:48.455Z,46.69
2023-04-03T09:05:40.252Z,44.66
2023-04-03T09:08:25.098Z,45.26
2023-04-03T09:11:01.480Z,46.42
2023-04-03T09:13:34.035Z,45.96
2023-04-03T09:16:03.898Z,45.38
2023-04-03T09:18:34.443Z,47.36
2023-04-03T09:21:18.849Z,47.29
2023-04-03T09:23:51.825Z,47.24
2023-04-03T09:26:27.319Z,45.57
2023-04-03T09:28:56.081Z,46.10
2023-04-03T09:31:25.609Z,46.35
2023-04-03T09:34:05.282Z,44.13
2023-04-03T09:36:49.303Z,45.45
2023-04-03T09:39:18.694Z,45.42
2023-04-03T09:41:56.579Z,41.23
2023-04-03T09:44:26.313Z,40.97
2023-04-03T09:46:53.384Z,41.82
2023-04-03T09:49:22.357Z,41.48
2023-04-03T09:51:50.305Z,42.45
2023-04-03T09:54:37.365Z,40.66
2023-04-03T09:57:11.390Z,40.61
2023-04-03T09:59:43.904Z,40.62
2023-04-03T10:02:28.843Z,39.41
2023-04-03T10:05:08.808Z,39.14
2023-04-03T10:07:40.177Z,38.25
2023-04-03T10:10:18.470Z,39.43
2023-04-03T10:12:46.232Z,36.70
2023-04-03T10:15:15.175Z,35.88
2023-04-03T10:18:14.275Z,36.11
2023-04-03T10:20:51.198Z,35.63
2023-04-03T10:23:24.377Z,37.29
2023-04-03T10:26:08.944Z,37.03
2023-04-03T10:29:01.214Z,37.27
2023-04-03T10:31:46.650Z,36.98
2023-04-03T10:34:28.646Z,39.41
2023-04-03T10:37:14.475Z,38.68
2023-04-03T10:39:47.295Z,38.98
2023-04-03T10:42:29.399Z,40.57
2023-04-03T10:45:41.260Z,41.38
2023-04-03T10:48:17.761Z,41.42
2023-04-03T10:50:50.809Z,40.67
2023-04-03T10:53:23.650Z,41.16
2023-04-03T10:56:03.363Z,40.35
2023-04-03T10:58:30.522Z,40.32
2023-04-03T11:01:04.132Z,41.12
2023-04-03T11:03:34.788Z,40.60
2023-04-03T11:06:03.705Z,38.67
2023-04-03T11:08:45.989Z,41.10
2023-04-03T11:11:23.653Z,40.69
2023-04-03T11:13:56.940Z,40.10
2023-04-03T11:16:30.501Z,37.89
2023-04-03T11:19:01.278Z,35.85
2023-04-03T11:22:16.971Z,39.29
2023-04-03T11:24:44.760Z,39.12
2023-04-03T11:27:17.956Z,39.28
2023-04-03T11:29:46.673Z,40.58
2023-04-03T11:32:34.758Z,39.65
2023-04-03T11:35:03.335Z,39.28
2023-04-03T11:37:36.976Z,40.64
2023-04-03T11:40:14.041Z,38.63
2023-04-03T11:42:42.151Z,41.09
2023-04-03T11:45:19.135Z,41.40
2023-04-03T11:47:54.086Z,41.41
2023-04-03T11:50:41.644Z,41.13
2023-04-03T11:53:09.099Z,41.29
2023-04-03T11:55:37.184Z,41.49
2023-04-03T11:58:13.772Z,40.52
2023-04-03T12:00:48.197Z,40.69
2023-04-03T12:03:24.428Z,41.11
2023-04-03T12:06:01.424Z,40.45
2023-04-03T12:08:34.557Z,41.89
2023-04-03T12:11:10.793Z,41.49
2023-04-03T12:13:39.452Z,43.11
2023-04-03T12:16:28.731Z,44.45
2023-04-03T12:19:15.498Z,43.58
2023-04-03T12:21:46.019Z,43.79
2023-04-03T12:24:19.239Z,41.70
2023-04-03T12:26:58.428Z,41.79
2023-04-03T12:29:34.581Z,43.31
2023-04-03T12:32:13.711Z,42.04
2023-04-03T12:34:57.619Z,44.15
2023-04-03T12:37:49.400Z,44.68
2023-04-03T12:40:34.126Z,43.68
2023-04-03T12:43:11.385Z,43.83
2023-04-03T12:45:44.812Z,43.76
2023-04-03T12:48:19.630Z,42.68
2023-04-03T12:50:50.559Z,41.56
2023-04-03T12:53:17.502Z,44.70
2023-04-03T12:55:47.644Z,42.91
2023-04-03T12:58:16.546Z,43.31
2023-04-03T13:00:43.363Z,43.00
2023-04-03T13:03:24.158Z,42.69
2023-04-03T13:05:51.485Z,42.19
2023-04-03T13:08:20.440Z,42.96
2023-04-03T13:10:52.739Z,40.41
2023-04-03T13:13:19.546Z,41.06
2023-04-03T13:15:54.012Z,40.69
2023-04-03T13:18:25.070Z,40.60
2023-04-03T13:20:52.233Z,39.51
2023-04-03T13:23:21.771Z,40.10
2023-04-03T13:25:49.597Z,40.92
2023-04-03T13:28:19.838Z,39.26
2023-04-03T13:31:00.973Z,42.22
2023-04-03T13:33:32.774Z,41.87
2023-04-03T13:36:19.762Z,42.42
2023-04-03T13:38:46.651Z,41.58
2023-04-03T13:41:27.705Z,42.62
2023-04-03T13:44:03.284Z,43.32
2023-04-03T13:46:37.456Z,43.29
2023-04-03T13:49:28.382Z,44.31
2023-04-03T13:52:06.404Z,44.20
2023-04-03T13:54:37.813Z,44.28
2023-04-03T13:57:17.123Z,43.93
2023-04-03T13:59:45.050Z,44.05
2023-04-03T14:02:17.687Z,45.50
2023-04-03T14:04:50.532Z,45.75
2023-04-03T14:07:19.326Z,45.19
2023-04-03T14:09:46.407Z,45.93
2023-04-03T14:12:30.132Z,44.34
2023-04-03T14:14:58.270Z,44.85
2023-04-03T14:17:27.779Z,44.50
2023-04-03T14:19:56.124Z,44.93
2023-04-03T14:22:32.745Z,45.44
2023-04-03T14:25:00.069Z,46.21
2023-04-03T14:27:36.812Z,44.67
2023-04-03T14:30:05.426Z,46.20
2023-04-03T14:32:32.307Z,45.73
2023-04-03T14:34:59.581Z,46.84
2023-04-03T14:37:29.082Z,45.63
2023-04-03T14:39:57.337Z,44.96
2023-04-03T14:42:26.581Z,43.61
2023-04-03T14:44:53.512Z,44.17
2023-04-03T14:47:31.308Z,45.29
2023-04-03T14:50:01.312Z,44.56
2023-04-03T14:52:31.622Z,45.86
2023-04-03T14:54:58.475Z,44.69
2023-04-03T14:57:27.313Z,45.73
2023-04-03T14:59:54.306Z,45.51
2023-04-03T15:02:37.535Z,43.38
2023-04-03T15:05:09.952Z,43.56
2023-04-03T15:07:39.015Z,44.25
2023-04-03T15:10:18.561Z,44.50
2023-04-03T15:12:47.870Z,43.52
2023-04-03T15:15:16.115Z,42.76
2023-04-03T15:17:44.550Z,44.76
2023-04-03T15:20:20.236Z,44.30
2023-04-03T15:22:47.469Z,45.64
2023-04-03T15:25:14.358Z,45.59
2023-04-03T15:27:42.601Z,45.65
2023-04-03T15:30:14.758Z,45.86
2023-04-03T15:32:41.581Z,46.83
2023-04-03T15:35:08.697Z,46.91
2023-04-03T15:37:35.795Z,45.51
2023-04-03T15:40:02.947Z,47.15
2023-04-03T15:42:29.803Z,46.58
2023-04-03T15:44:56.626Z,46.32
2023-04-03T15:47:23.523Z,46.41
